createdAt,value
2022-10-06T00:01:45.095Z,11.73
2022-10-06T00:06:47.490Z,11.20
2022-10-06T00:11:49.849Z,11.00
2022-10-06T00:16:52.189Z,10.27
2022-10-06T00:21:54.573Z,11.88
2022-10-06T00:26:56.909Z,10.85
2022-10-06T00:31:59.219Z,10.32
2022-10-06T00:37:02.746Z,10.77
2022-10-06T00:42:05.374Z,10.52
2022-10-06T00:47:08.555Z,9.18
2022-10-06T00:52:13.402Z,9.82
2022-10-06T00:57:16.057Z,10.50
2022-10-06T01:02:21.185Z,10.07
2022-10-06T01:07:25.990Z,9.93
2022-10-06T01:12:29.870Z,10.32
2022-10-06T01:17:52.535Z,11.27
2022-10-06T01:23:06.718Z,9.93
2022-10-06T01:28:09.991Z,10.38
2022-10-06T01:33:12.623Z,10.63
2022-10-06T01:38:15.744Z,10.13
2022-10-06T01:43:19.184Z,9.95
2022-10-06T01:48:21.670Z,10.50
2022-10-06T01:53:25.064Z,11.40
2022-10-06T01:58:27.890Z,10.75
2022-10-06T02:03:30.717Z,9.85
2022-10-06T02:08:33.344Z,10.70
2022-10-06T02:13:38.404Z,11.35
2022-10-06T02:18:41.240Z,10.80
2022-10-06T02:23:43.637Z,12.30
2022-10-06T02:28:47.357Z,11.60
2022-10-06T02:33:54.193Z,11.82
2022-10-06T02:38:59.092Z,12.18
2022-10-06T02:44:01.907Z,12.02
2022-10-06T02:49:05.644Z,11.50
2022-10-06T02:54:10.077Z,11.48
2022-10-06T02:59:12.423Z,11.82
2022-10-06T03:04:17.441Z,12.57
2022-10-06T03:09:20.786Z,13.00
2022-10-06T03:14:23.526Z,12.32
2022-10-06T03:19:26.601Z,12.98
2022-10-06T03:24:29.689Z,13.25
2022-10-06T03:29:35.171Z,13.07
2022-10-06T03:34:38.899Z,12.50
2022-10-06T03:39:44.462Z,12.80
2022-10-06T03:44:47.426Z,12.65
2022-10-06T03:49:49.795Z,12.77
2022-10-06T03:54:52.489Z,12.05
2022-10-06T03:59:59.291Z,13.57
2022-10-06T04:05:01.895Z,13.38
2022-10-06T04:10:05.966Z,12.95
2022-10-06T04:15:08.723Z,12.05
2022-10-06T04:20:11.930Z,13.25
2022-10-06T04:25:14.294Z,12.77
2022-10-06T04:30:17.029Z,12.52
2022-10-06T04:35:20.313Z,11.73
2022-10-06T04:40:22.923Z,12.32
2022-10-06T04:45:25.932Z,11.25
2022-10-06T04:50:28.378Z,11.73
2022-10-06T04:55:42.897Z,10.48
2022-10-06T05:00:45.238Z,9.20
2022-10-06T05:05:47.654Z,9.70
2022-10-06T05:10:50.242Z,9.27
2022-10-06T05:15:57.296Z,8.32
2022-10-06T05:21:06.804Z,8.05
2022-10-06T05:26:12.467Z,9.02
2022-10-06T05:31:20.299Z,9.75
2022-10-06T05:36:25.699Z,9.07
2022-10-06T05:41:32.219Z,8.93
2022-10-06T05:46:37.570Z,8.45
2022-10-06T05:51:40.651Z,8.25
2022-10-06T05:56:57.121Z,7.10
2022-10-06T06:02:00.371Z,8.52
2022-10-06T06:07:16.481Z,9.70
2022-10-06T06:12:20.667Z,8.98
2022-10-06T06:17:33.419Z,8.93
2022-10-06T06:22:38.110Z,8.75
2022-10-06T06:27:42.344Z,8.07
2022-10-06T06:32:45.331Z,8.27
2022-10-06T06:37:49.116Z,8.00
2022-10-06T06:42:53.811Z,8.20
2022-10-06T06:48:22.758Z,8.68
2022-10-06T06:53:26.026Z,7.70
2022-10-06T06:58:33.075Z,6.90
2022-10-06T07:03:56.610Z,7.78
2022-10-06T07:08:59.706Z,5.80
2022-10-06T07:14:12.628Z,6.15
2022-10-06T07:19:38.652Z,5.80
2022-10-06T07:25:00.508Z,5.80
2022-10-06T07:30:04.331Z,5.70
2022-10-06T07:35:07.787Z,5.32
2022-10-06T07:40:12.027Z,5.13
2022-10-06T07:45:38.991Z,5.13
2022-10-06T07:50:48.001Z,5.78
2022-10-06T07:55:53.250Z,4.80
2022-10-06T08:01:05.600Z,5.00
2022-10-06T08:06:14.333Z,4.70
2022-10-06T08:11:16.831Z,5.13
2022-10-06T08:16:21.465Z,4.20
2022-10-06T08:21:26.782Z,4.47
2022-10-06T08:26:31.096Z,4.85
2022-10-06T08:31:33.467Z,4.00
2022-10-06T08:36:35.954Z,4.00
2022-10-06T08:41:46.727Z,3.95
2022-10-06T08:46:56.414Z,3.85
2022-10-06T08:52:14.389Z,4.10
2022-10-06T08:57:22.583Z,3.88
2022-10-06T09:02:39.318Z,3.53
2022-10-06T09:08:12.531Z,2.72
2022-10-06T09:13:22.220Z,3.28
2022-10-06T09:19:03.487Z,2.92
2022-10-06T09:24:11.183Z,2.27
2022-10-06T09:29:14.712Z,3.10
2022-10-06T09:34:22.320Z,2.22
2022-10-06T09:44:31.217Z,1.60
2022-10-06T09:49:33.826Z,1.77
2022-10-06T09:54:37.613Z,1.70
2022-10-06T09:59:47.015Z,2.00
2022-10-06T10:04:54.922Z,1.40
2022-10-06T10:10:18.668Z,1.13
2022-10-06T10:15:20.927Z,1.40
2022-10-06T10:20:28.277Z,1.05
2022-10-06T10:25:31.006Z,1.27
2022-10-06T10:30:45.440Z,1.38
2022-10-06T10:35:52.030Z,1.20
2022-10-06T10:41:00.976Z,1.33
2022-10-06T10:46:07.210Z,1.05
2022-10-06T10:51:15.034Z,1.50
2022-10-06T10:56:20.710Z,0.95
2022-10-06T11:01:55.164Z,0.90
2022-10-06T11:07:03.567Z,0.80
2022-10-06T11:12:17.609Z,0.98
2022-10-06T11:17:44.657Z,0.90
2022-10-06T11:23:08.278Z,0.77
2022-10-06T11:28:25.216Z,0.70
2022-10-06T11:33:30.600Z,0.73
2022-10-06T11:38:40.627Z,0.88
2022-10-06T11:43:48.991Z,1.10
2022-10-06T11:48:51.311Z,1.15
2022-10-06T11:53:54.528Z,0.60
2022-10-06T11:58:56.814Z,0.73
2022-10-06T12:04:24.341Z,0.95
2022-10-06T12:09:33.173Z,1.23
2022-10-06T12:16:35.264Z,0.82
2022-10-06T12:20:17.532Z,0.70
2022-10-06T12:25:43.357Z,0.60
2022-10-06T12:31:07.605Z,0.60
2022-10-06T12:36:23.142Z,0.82
2022-10-06T12:42:02.958Z,0.65
2022-10-06T12:47:21.349Z,0.80
2022-10-06T12:52:51.657Z,0.73
2022-10-06T12:57:54.316Z,0.80
2022-10-06T13:02:58.504Z,0.55
2022-10-06T13:08:06.664Z,1.15
2022-10-06T13:13:24.792Z,0.73
2022-10-06T13:18:28.762Z,0.70
2022-10-06T13:23:33.269Z,1.10
2022-10-06T13:28:44.250Z,1.00
2022-10-06T13:33:49.521Z,0.90
2022-10-06T13:38:53.429Z,1.10
2022-10-06T13:44:05.097Z,0.70
2022-10-06T13:49:43.186Z,0.80
2022-10-06T13:54:58.693Z,1.27
2022-10-06T14:00:16.628Z,1.00
2022-10-06T14:05:27.826Z,1.23
2022-10-06T14:10:48.463Z,1.23
2022-10-06T14:15:53.785Z,1.23
2022-10-06T14:20:57.751Z,0.98
2022-10-06T14:26:00.370Z,1.17
2022-10-06T14:31:02.777Z,0.82
2022-10-06T14:36:05.940Z,1.05
2022-10-06T14:41:08.371Z,1.10
2022-10-06T14:46:11.673Z,0.93
2022-10-06T14:51:14.062Z,1.35
2022-10-06T14:56:16.636Z,1.50
2022-10-06T15:01:20.861Z,1.48
2022-10-06T15:06:42.418Z,1.58
2022-10-06T15:11:44.931Z,1.33
2022-10-06T15:16:47.659Z,1.33
2022-10-06T15:21:50.365Z,1.10
2022-10-06T15:27:11.357Z,2.15
2022-10-06T15:32:14.110Z,0.90
2022-10-06T15:37:16.869Z,1.45
2022-10-06T15:42:21.730Z,3.10
2022-10-06T15:47:24.900Z,2.72
2022-10-06T15:52:27.411Z,2.40
2022-10-06T15:57:31.027Z,1.80
2022-10-06T16:02:35.712Z,2.53
2022-10-06T16:07:38.424Z,2.28
2022-10-06T16:12:40.754Z,2.33
2022-10-06T16:17:43.020Z,2.60
2022-10-06T16:22:45.449Z,3.53
2022-10-06T16:27:47.723Z,3.33
2022-10-06T16:32:50.086Z,3.33
2022-10-06T16:37:52.380Z,15.88
2022-10-06T16:42:54.881Z,27.05
2022-10-06T16:47:57.322Z,11.32
2022-10-06T16:52:59.602Z,7.90
2022-10-06T16:58:01.862Z,11.65
2022-10-06T17:03:04.232Z,10.63
2022-10-06T17:08:06.513Z,9.30
2022-10-06T17:13:08.800Z,5.95
2022-10-06T17:18:11.065Z,5.45
2022-10-06T17:23:13.667Z,9.63
2022-10-06T17:28:16.076Z,8.57
2022-10-06T17:33:19.413Z,8.50
2022-10-06T17:38:21.941Z,6.20
2022-10-06T17:43:24.224Z,6.72
2022-10-06T17:48:27.268Z,8.02
2022-10-06T17:53:29.612Z,7.18
2022-10-06T17:58:31.899Z,7.75
2022-10-06T18:03:39.048Z,14.75
2022-10-06T18:08:45.347Z,15.70
2022-10-06T18:13:49.578Z,16.98
2022-10-06T18:18:53.711Z,21.40
2022-10-06T18:23:55.988Z,13.57
2022-10-06T18:28:58.273Z,12.50
2022-10-06T18:39:23.767Z,14.38
2022-10-06T18:44:44.885Z,13.45
2022-10-06T18:49:47.249Z,7.03
2022-10-06T18:54:50.177Z,8.05
2022-10-06T18:59:52.732Z,7.35
2022-10-06T19:04:55.316Z,6.43
2022-10-06T19:09:57.721Z,5.15
2022-10-06T19:15:00.210Z,6.15
2022-10-06T19:20:02.487Z,6.45
2022-10-06T19:25:05.106Z,6.25
2022-10-06T19:30:07.903Z,6.05
2022-10-06T19:35:10.885Z,7.13
2022-10-06T19:40:13.434Z,7.03
2022-10-06T19:45:17.021Z,7.25
2022-10-06T19:50:19.672Z,6.45
2022-10-06T19:55:23.423Z,6.57
2022-10-06T20:00:26.790Z,5.53
2022-10-06T20:05:29.398Z,5.25
2022-10-06T20:10:32.957Z,5.00
2022-10-06T20:15:35.495Z,5.63
2022-10-06T20:20:37.975Z,4.95
2022-10-06T20:25:40.427Z,5.25
2022-10-06T20:30:49.726Z,5.05
2022-10-06T20:35:52.049Z,5.00
2022-10-06T20:40:54.429Z,5.45
2022-10-06T20:45:57.493Z,5.85
2022-10-06T20:50:59.875Z,5.20
2022-10-06T20:56:02.249Z,5.30
2022-10-06T21:01:12.965Z,4.80
2022-10-06T21:06:16.630Z,5.07
2022-10-06T21:11:20.575Z,4.82
2022-10-06T21:16:44.115Z,4.38
2022-10-06T21:21:52.040Z,4.88
2022-10-06T21:26:54.715Z,3.88
2022-10-06T21:31:57.067Z,4.50
2022-10-06T21:36:59.481Z,4.97
2022-10-06T21:42:02.005Z,4.38
2022-10-06T21:47:04.506Z,5.45
2022-10-06T21:52:07.002Z,3.88
2022-10-06T21:57:09.428Z,5.50
2022-10-06T22:02:11.924Z,4.57
2022-10-06T22:07:14.266Z,4.63
2022-10-06T22:12:16.630Z,5.90
2022-10-06T22:17:18.955Z,5.72
2022-10-06T22:22:21.452Z,5.70
2022-10-06T22:27:25.255Z,5.60
2022-10-06T22:32:27.592Z,5.35
2022-10-06T22:37:30.105Z,5.07
2022-10-06T22:42:32.517Z,8.23
2022-10-06T22:47:34.841Z,9.18
2022-10-06T22:52:37.165Z,9.02
2022-10-06T22:57:39.505Z,8.85
2022-10-06T23:02:41.937Z,9.68
2022-10-06T23:07:44.638Z,9.55
2022-10-06T23:12:48.132Z,7.60
2022-10-06T23:17:50.601Z,6.30
2022-10-06T23:22:56.036Z,5.40
2022-10-06T23:27:59.051Z,5.45
2022-10-06T23:33:01.542Z,5.78
2022-10-06T23:38:03.857Z,6.45
2022-10-06T23:43:06.261Z,6.88
2022-10-06T23:48:08.681Z,6.95
2022-10-06T23:53:11.101Z,7.90
2022-10-06T23:58:14.844Z,6.72
